• Join FlightAware (Why Join?)
  • Login
  • US Flag 
06:29AM EDT


 

Airport Tracker/Info


-or-


 

Live Flight TrackerFlight Track Log ✈ N779NC ✈ 27-Jun-2013 ✈ KPIT - KATL

Flight Track Log - Related Links

Times and Time Zones

All times are in EDT time to prevent confusion due to time zone crossing. See the N779NC flight status page for this flight to view local times or setup timezone preferences in your user account.

Time Position Orientation Groundspeed Altitude Reporting Facility
EDT Latitude Longitude Course Direction KTS MPH feet Rate Location/Type
07:52PM 40.1361 -80.1602 214° Southwest  Level FlightAware Approximate
07:52PM 40.2775 -80.3192 212° Southwest 335 386 8,200  Level Cleveland Center
07:53PM 40.0486 -80.2367 214° Southwest  Level FlightAware Approximate
07:53PM 40.1939 -80.3003 170° South 329 379 10,500  Level Cleveland Center
07:54PM 39.9643 -80.3190 217° Southwest  Level FlightAware Approximate
07:54PM 40.0981 -80.2819 172° South 336 387 11,500  Level Cleveland Center
07:55PM 39.8783 -80.3980 215° Southwest  Level FlightAware Approximate
07:55PM 40.0000 -80.3094 192° South 345 397 13,700  Level Cleveland Center
07:56PM 39.7917 -80.4759 215° Southwest  Level FlightAware Approximate
07:56PM 39.9086 -80.3639 205° Southwest 351 404 15,400  Level Cleveland Center
07:57PM 39.7117 -80.5607 212° Southwest  Level FlightAware Approximate
07:57PM 39.8086 -80.3967 194° South 368 423 17,500  Level Cleveland Center
07:58PM 39.7044 -80.4211 190° South 374 430 19,600 1,440 Climbing Cleveland Center
08:00PM 39.5250 -80.4550 188° South 398 458 21,200 1,080 Climbing Indianapolis Center
08:01PM 39.4139 -80.4744 188° South 400 460 22,500 1,200 Climbing Indianapolis Center
08:02PM 39.3019 -80.4931 187° South 402 463 23,700 1,140 Climbing Indianapolis Center
08:03PM 39.1947 -80.5311 195° South 401 461 24,900 1,020 Climbing Indianapolis Center
08:04PM 39.0906 -80.5717 197° South 390 449 25,900 780 Climbing Indianapolis Center
08:05PM 38.9844 -80.6153 198° South 395 455 26,600 660 Climbing Indianapolis Center
08:06PM 38.8803 -80.6792 206° Southwest 412 474 27,300 600 Climbing Indianapolis Center
08:07PM 38.7758 -80.7464 207° Southwest 418 481 27,900 660 Climbing Indianapolis Center
08:08PM 38.6439 -80.8292 206° Southwest 433 498 28,700 780 Climbing Indianapolis Center
08:09PM 38.5306 -80.9008 206° Southwest 447 514 29,500 960 Climbing Indianapolis Center
08:10PM 38.4181 -80.9739 207° Southwest 450 518 30,800 1,080 Climbing Indianapolis Center
08:11PM 38.3056 -81.0444 206° Southwest 447 514 31,800 540 Climbing Indianapolis Center
08:12PM 38.1928 -81.1139 206° Southwest 447 514 32,000 60 Climbing Indianapolis Center
08:13PM 38.0781 -81.1831 205° Southwest 453 521 32,000  Level Indianapolis Center
08:14PM 37.9617 -81.2544 206° Southwest 460 529 32,000  Level Indianapolis Center
08:15PM 37.8456 -81.3247 206° Southwest 461 531 32,000  Level Indianapolis Center
08:16PM 37.7183 -81.4047 206° Southwest 464 534 32,000  Level Indianapolis Center
08:17PM 37.6050 -81.4750 206° Southwest 466 536 32,000  Level Indianapolis Center
08:18PM 37.4664 -81.5633 207° Southwest 465 535 32,000  Level Indianapolis Center
08:19PM 37.3494 -81.6381 207° Southwest 467 537 32,000  Level Indianapolis Center
08:20PM 37.2322 -81.7122 207° Southwest 470 541 32,000  Level Indianapolis Center
08:21PM 37.1144 -81.7850 206° Southwest 469 540 32,000  Level Indianapolis Center
08:22PM 36.9944 -81.8553 205° Southwest 471 542 32,000 -420 Level Indianapolis Center
08:23PM 36.8692 -81.9167 201° Southwest 477 549 31,200 -1,140 Descending Indianapolis Center
08:24PM 36.7625 -81.9761 204° Southwest 486 559 30,000 -720 Descending Atlanta Center
08:25PM 36.6469 -82.0542 208° Southwest 480 552 30,000  Level Atlanta Center
08:26PM 36.5358 -82.1344 210° Southwest 474 545 30,000  Level Atlanta Center
08:27PM 36.4244 -82.2275 214° Southwest 474 545 30,000  Level Atlanta Center
08:28PM 36.3111 -82.3125 211° Southwest 479 551 30,000  Level Atlanta Center
08:29PM 36.1867 -82.3742 202° Southwest 479 551 30,000  Level Atlanta Center
08:30PM 36.0625 -82.4358 202° Southwest 479 551 30,000 -480 Level Atlanta Center
08:31PM 35.9442 -82.4972 203° Southwest 479 551 29,100 -1,320 Descending Atlanta Center
08:32PM 35.8219 -82.5636 204° Southwest 474 545 27,400 -1,500 Descending Atlanta Center
08:33PM 35.7061 -82.6372 207° Southwest 479 551 26,100 -720 Descending Atlanta Center
08:34PM 35.6067 -82.7003 207° Southwest 472 543 26,000 -60 Descending Atlanta Center
08:35PM 35.4969 -82.7811 211° Southwest 460 529 26,000 -300 Level Atlanta Center
08:36PM 35.3956 -82.8719 216° Southwest 455 524 25,400 -1,020 Descending Atlanta Center
08:37PM 35.2836 -82.9600 213° Southwest 474 545 24,000 -720 Descending Atlanta Center
08:38PM 35.1675 -83.0225 204° Southwest 469 540 24,000  Level Atlanta Center
08:39PM 35.0447 -83.0822 202° Southwest 468 539 24,000 -840 Level Atlanta Center
08:40PM 34.9117 -83.1344 198° South 485 558 22,400 -1,440 Descending Atlanta Center
08:41PM 34.7786 -83.2017 203° Southwest 485 558 21,200 -900 Descending Atlanta Center
08:43PM 34.6514 -83.3127 217° Southwest  Level FlightAware Approximate
08:44PM 34.4481 -83.4142 217° Southwest 451 519 19,000  Level Atlanta Center
08:45PM 34.3525 -83.5156 221° Southwest 451 519 19,000 -480 Level Atlanta Center
08:47PM 34.2167 -83.6667 223° Southwest 437 503 17,800 -1,080 Descending Atlanta TRACON
08:48PM 34.1333 -83.7667 225° Southwest 424 488 16,400 -1,200 Descending Atlanta TRACON
08:48PM 34.0667 -83.8667 231° Southwest 397 457 15,500 -1,200 Descending Atlanta TRACON
08:49PM 34.0322 -83.9233 234° Southwest 397 457 14,700 -1,440 Descending Atlanta Center
08:50PM 33.9528 -83.9836 212° Southwest 366 421 13,300 -1,380 Descending Atlanta Center
08:51PM 33.8694 -83.9836 180° South 332 382 12,000 -1,440 Descending Atlanta Center
08:52PM 33.7775 -83.9764 176° South 327 376 10,500 -1,140 Descending Atlanta Center
08:53PM 33.7003 -83.9714 177° South 308 354 9,800 -1,140 Descending Atlanta Center
08:54PM 33.6397 -83.9864 192° South 209 241 8,300 -1,620 Descending Atlanta Center
08:55PM 33.6314 -84.0489 261° West 181 208 6,600 -1,260 Descending Atlanta Center
08:56PM 33.6294 -84.1161 268° West 181 208 5,800 -960 Descending Atlanta Center
08:57PM 33.6333 -84.2000 273° West 185 213 4,300 -1,080 Descending Atlanta TRACON